createdAt,value
2022-11-14T00:02:44.300Z,8.80
2022-11-14T00:05:48.730Z,8.70
2022-11-14T00:08:53.265Z,8.80
2022-11-14T00:11:57.748Z,8.70
2022-11-14T00:15:02.656Z,8.80
2022-11-14T00:18:08.476Z,8.80
2022-11-14T00:21:12.777Z,9.10
2022-11-14T00:24:17.285Z,9.10
2022-11-14T00:27:22.005Z,9.30
2022-11-14T00:30:27.911Z,9.20
2022-11-14T00:33:34.033Z,9.30
2022-11-14T00:36:39.648Z,9.30
2022-11-14T00:39:44.450Z,8.90
2022-11-14T00:42:48.726Z,9.10
2022-11-14T00:45:53.108Z,9.10
2022-11-14T00:48:58.871Z,8.90
2022-11-14T00:52:03.560Z,8.60
2022-11-14T00:55:09.092Z,8.80
2022-11-14T00:58:13.556Z,8.80
2022-11-14T01:01:18.154Z,8.60
2022-11-14T01:04:23.895Z,8.40
2022-11-14T01:07:28.193Z,8.30
2022-11-14T01:10:32.849Z,8.40
2022-11-14T01:13:37.518Z,8.70
2022-11-14T01:16:42.127Z,8.80
2022-11-14T01:19:47.844Z,8.80
2022-11-14T01:22:52.057Z,8.90
2022-11-14T01:26:02.527Z,9.00
2022-11-14T01:29:07.271Z,8.90
2022-11-14T01:32:11.875Z,9.00
2022-11-14T01:35:18.220Z,9.10
2022-11-14T01:38:22.904Z,9.10
2022-11-14T01:41:27.584Z,8.90
2022-11-14T01:44:44.141Z,8.90
2022-11-14T01:47:49.032Z,8.90
2022-11-14T01:50:58.470Z,8.80
2022-11-14T01:54:05.909Z,8.70
2022-11-14T01:57:12.656Z,8.50
2022-11-14T02:00:17.549Z,8.40
2022-11-14T02:03:22.215Z,8.40
2022-11-14T02:06:30.104Z,8.30
2022-11-14T02:09:38.416Z,8.20
2022-11-14T02:12:42.874Z,8.20
2022-11-14T02:15:47.563Z,8.20
2022-11-14T02:18:51.924Z,8.10
2022-11-14T02:21:57.791Z,7.80
2022-11-14T02:25:03.067Z,7.90
2022-11-14T02:28:10.697Z,7.90
2022-11-14T02:31:15.959Z,7.80
2022-11-14T02:34:20.409Z,7.80
2022-11-14T02:37:26.501Z,7.80
2022-11-14T02:40:30.768Z,7.80
2022-11-14T02:43:35.377Z,7.80
2022-11-14T02:46:39.792Z,7.70
2022-11-14T02:49:44.648Z,7.60
2022-11-14T02:52:50.766Z,7.50
2022-11-14T02:55:55.196Z,7.40
2022-11-14T02:58:59.444Z,7.40
2022-11-14T03:02:04.051Z,7.30
2022-11-14T03:05:08.748Z,7.30
2022-11-14T03:08:14.609Z,7.20
2022-11-14T03:11:19.549Z,7.00
2022-11-14T03:14:24.446Z,7.00
2022-11-14T03:17:32.315Z,7.10
2022-11-14T03:20:36.623Z,7.10
2022-11-14T03:23:42.798Z,7.10
2022-11-14T03:26:47.168Z,7.00
2022-11-14T03:29:51.546Z,7.00
2022-11-14T03:32:56.640Z,7.00
2022-11-14T03:36:01.518Z,6.90
2022-11-14T03:39:07.640Z,6.90
2022-11-14T03:42:12.134Z,6.80
2022-11-14T03:45:16.811Z,6.80
2022-11-14T03:48:21.350Z,7.00
2022-11-14T03:51:25.985Z,7.00
2022-11-14T03:54:31.875Z,7.00
2022-11-14T03:57:36.141Z,7.00
2022-11-14T04:00:41.030Z,7.00
2022-11-14T04:03:45.534Z,6.90
2022-11-14T04:06:50.608Z,6.90
2022-11-14T04:09:56.635Z,6.90
2022-11-14T04:13:01.103Z,6.80
2022-11-14T04:16:06.338Z,6.80
2022-11-14T04:19:10.496Z,6.90
2022-11-14T04:22:14.894Z,6.90
2022-11-14T04:25:20.793Z,6.70
2022-11-14T04:28:25.581Z,6.70
2022-11-14T04:31:29.950Z,6.70
2022-11-14T04:34:34.673Z,7.00
2022-11-14T04:37:39.533Z,7.10
2022-11-14T04:40:50.669Z,7.20
2022-11-14T04:43:55.205Z,7.20
2022-11-14T04:47:00.069Z,7.30
2022-11-14T04:50:05.474Z,7.00
2022-11-14T04:53:09.998Z,7.00
2022-11-14T04:56:16.178Z,6.90
2022-11-14T04:59:21.321Z,6.90
2022-11-14T05:02:25.913Z,7.20
2022-11-14T05:05:30.112Z,7.10
2022-11-14T05:08:35.052Z,7.20
2022-11-14T05:11:41.141Z,6.90
2022-11-14T05:14:45.641Z,6.80
2022-11-14T05:17:50.406Z,7.00
2022-11-14T05:20:58.333Z,6.80
2022-11-14T05:24:02.634Z,7.00
2022-11-14T05:27:08.421Z,6.80
2022-11-14T05:30:13.427Z,6.90
2022-11-14T05:33:17.903Z,6.70
2022-11-14T05:36:22.415Z,6.80
2022-11-14T05:39:26.679Z,6.80
2022-11-14T05:42:32.628Z,6.90
2022-11-14T05:45:37.213Z,7.10
2022-11-14T05:48:42.383Z,6.90
2022-11-14T05:51:47.148Z,7.00
2022-11-14T05:54:51.737Z,6.70
2022-11-14T06:05:23.474Z,6.70
2022-11-14T06:08:29.759Z,6.80
2022-11-14T06:11:34.370Z,7.10
2022-11-14T06:14:38.840Z,6.90
2022-11-14T06:17:44.401Z,6.90
2022-11-14T06:20:53.842Z,7.00
2022-11-14T06:23:58.747Z,6.90
2022-11-14T06:27:03.163Z,7.10
2022-11-14T06:30:09.023Z,7.00
2022-11-14T06:33:13.870Z,6.80
2022-11-14T06:36:20.063Z,6.80
2022-11-14T06:39:24.622Z,6.60
2022-11-14T06:42:29.920Z,6.50
2022-11-14T06:45:36.322Z,6.70
2022-11-14T06:48:41.630Z,6.50
2022-11-14T06:51:48.273Z,6.60
2022-11-14T06:54:53.898Z,6.90
2022-11-14T06:58:00.736Z,7.00
2022-11-14T07:01:06.297Z,7.20
2022-11-14T07:04:11.922Z,6.70
2022-11-14T07:07:16.568Z,6.90
2022-11-14T07:10:22.206Z,7.00
2022-11-14T07:15:52.604Z,7.00
2022-11-14T07:18:57.709Z,7.00
2022-11-14T07:22:02.177Z,7.00
2022-11-14T07:25:07.487Z,6.80
2022-11-14T07:28:12.460Z,6.80
2022-11-14T07:31:19.747Z,6.90
2022-11-14T07:34:23.818Z,7.00
2022-11-14T07:37:27.908Z,6.80
2022-11-14T07:40:32.218Z,6.90
2022-11-14T07:43:36.524Z,6.90
2022-11-14T07:46:42.530Z,6.90
2022-11-14T07:49:46.753Z,6.90
2022-11-14T07:52:51.597Z,6.90
2022-11-14T07:55:55.752Z,7.00
2022-11-14T07:59:00.237Z,7.20
2022-11-14T08:02:06.061Z,7.10
2022-11-14T08:05:10.376Z,6.90
2022-11-14T08:08:14.800Z,6.90
2022-11-14T08:11:38.860Z,7.40
2022-11-14T08:14:43.225Z,7.40
2022-11-14T08:17:48.827Z,7.40
2022-11-14T08:20:54.333Z,7.40
2022-11-14T08:23:58.458Z,7.50
2022-11-14T08:27:03.020Z,7.30
2022-11-14T08:30:08.577Z,7.60
2022-11-14T08:33:14.192Z,7.80
2022-11-14T08:36:18.861Z,8.20
2022-11-14T08:39:24.134Z,8.60
2022-11-14T08:42:28.818Z,8.40
2022-11-14T08:45:33.251Z,8.40
2022-11-14T08:48:39.306Z,8.60
2022-11-14T08:51:43.983Z,8.70
2022-11-14T08:54:48.635Z,8.50
2022-11-14T08:57:53.629Z,8.80
2022-11-14T09:00:59.792Z,8.80
2022-11-14T09:04:05.860Z,9.10
2022-11-14T09:07:10.932Z,9.10
2022-11-14T09:10:16.158Z,9.40
2022-11-14T09:13:20.683Z,9.50
2022-11-14T09:16:25.195Z,10.10
2022-11-14T09:19:31.370Z,10.80
2022-11-14T09:22:35.492Z,11.40
2022-11-14T09:25:40.132Z,11.70
2022-11-14T09:28:44.961Z,12.00
2022-11-14T09:31:51.256Z,12.40
2022-11-14T09:34:57.473Z,12.70
2022-11-14T09:38:02.061Z,13.30
2022-11-14T09:41:16.020Z,13.50
2022-11-14T09:44:28.712Z,13.60
2022-11-14T09:47:37.427Z,12.90
2022-11-14T09:50:44.989Z,12.60
2022-11-14T09:53:52.274Z,12.70
2022-11-14T09:56:56.874Z,13.30
2022-11-14T10:00:01.835Z,14.00
2022-11-14T10:03:12.652Z,14.00
2022-11-14T10:06:22.773Z,14.20
2022-11-14T10:09:36.741Z,15.20
2022-11-14T10:12:44.160Z,15.60
2022-11-14T10:15:52.656Z,16.20
2022-11-14T10:19:10.524Z,15.70
2022-11-14T10:22:21.483Z,15.00
2022-11-14T10:25:27.190Z,15.30
2022-11-14T10:28:37.680Z,15.30
2022-11-14T10:31:45.134Z,15.50
2022-11-14T10:34:52.392Z,15.80
2022-11-14T10:38:01.401Z,15.40
2022-11-14T10:41:06.639Z,15.20
2022-11-14T10:44:12.105Z,15.10
2022-11-14T10:47:18.492Z,15.40
2022-11-14T10:50:24.997Z,15.40
2022-11-14T10:53:34.378Z,15.80
2022-11-14T10:56:45.804Z,15.90
2022-11-14T10:59:56.166Z,16.40
2022-11-14T11:03:02.745Z,16.60
2022-11-14T11:06:24.230Z,16.00
2022-11-14T11:09:48.728Z,15.90
2022-11-14T11:12:53.867Z,15.90
2022-11-14T11:15:59.530Z,15.20
2022-11-14T11:19:22.571Z,14.80
2022-11-14T11:22:34.926Z,14.70
2022-11-14T11:25:40.635Z,15.80
2022-11-14T11:29:00.489Z,16.40
2022-11-14T11:32:05.092Z,17.10
2022-11-14T11:35:11.476Z,16.80
2022-11-14T11:38:16.532Z,16.60
2022-11-14T11:44:50.998Z,16.00
2022-11-14T11:47:57.667Z,16.40
2022-11-14T11:51:02.813Z,15.80
2022-11-14T11:54:13.018Z,14.90
2022-11-14T11:57:22.291Z,14.60
2022-11-14T12:00:26.631Z,13.60
2022-11-14T12:03:31.317Z,13.50
2022-11-14T12:06:41.687Z,13.50
2022-11-14T12:13:18.144Z,12.00
2022-11-14T12:16:32.337Z,11.60
2022-11-14T12:19:44.885Z,11.50
2022-11-14T12:23:03.857Z,11.30
2022-11-14T12:26:25.519Z,11.20
2022-11-14T12:29:48.135Z,11.20
2022-11-14T12:32:53.607Z,11.10
2022-11-14T12:35:59.227Z,11.20
2022-11-14T12:39:03.893Z,11.50
2022-11-14T12:42:14.585Z,11.40
2022-11-14T12:45:37.913Z,11.20
2022-11-14T12:48:44.639Z,11.50
2022-11-14T12:51:50.409Z,11.70
2022-11-14T12:54:54.621Z,12.00
2022-11-14T12:58:02.411Z,11.80
2022-11-14T13:01:15.956Z,11.50
2022-11-14T13:04:27.386Z,11.70
2022-11-14T13:07:38.483Z,11.90
2022-11-14T13:10:43.322Z,11.70
2022-11-14T13:14:17.504Z,11.90
2022-11-14T13:17:42.965Z,12.20
2022-11-14T13:21:19.677Z,12.00
2022-11-14T13:24:24.402Z,11.80
2022-11-14T13:27:52.414Z,11.70
2022-11-14T13:31:07.899Z,11.70
2022-11-14T13:34:27.332Z,11.80
2022-11-14T13:37:40.714Z,12.00
2022-11-14T13:40:49.243Z,11.90
2022-11-14T13:44:05.952Z,11.80
2022-11-14T13:47:35.407Z,11.90
2022-11-14T13:50:40.836Z,12.30
2022-11-14T13:53:47.246Z,12.00
2022-11-14T13:57:03.222Z,11.60
2022-11-14T14:00:18.639Z,11.30
2022-11-14T14:03:38.494Z,11.10
2022-11-14T14:06:53.717Z,11.10
2022-11-14T14:10:06.993Z,11.00
2022-11-14T14:13:23.897Z,10.70
2022-11-14T14:16:36.664Z,10.70
2022-11-14T14:19:53.542Z,10.70
2022-11-14T14:23:06.856Z,10.70
2022-11-14T14:26:23.548Z,10.80
2022-11-14T14:29:38.220Z,10.80
2022-11-14T14:32:43.171Z,10.90
2022-11-14T14:35:53.540Z,10.80
2022-11-14T14:39:16.910Z,10.60
2022-11-14T14:42:23.046Z,10.60
2022-11-14T14:45:29.515Z,10.80
2022-11-14T14:48:39.328Z,10.90
2022-11-14T14:51:44.526Z,10.90
2022-11-14T14:54:55.103Z,10.90
2022-11-14T14:58:21.984Z,10.80
2022-11-14T15:01:33.477Z,10.70
2022-11-14T15:04:40.151Z,10.50
2022-11-14T15:07:46.421Z,10.50
2022-11-14T15:10:51.416Z,10.80
2022-11-14T15:13:59.261Z,10.90
2022-11-14T15:17:04.662Z,10.70
2022-11-14T15:20:22.519Z,10.90
2022-11-14T15:23:26.787Z,10.90
2022-11-14T15:26:31.683Z,10.90
2022-11-14T15:29:45.907Z,10.50
2022-11-14T15:32:51.992Z,11.00
2022-11-14T15:36:08.637Z,11.10
2022-11-14T15:39:26.716Z,11.20
2022-11-14T15:42:31.612Z,11.10
2022-11-14T15:45:41.039Z,11.20
2022-11-14T15:48:45.707Z,11.40
2022-11-14T15:51:53.539Z,11.40
2022-11-14T15:54:58.148Z,11.40
2022-11-14T16:01:28.947Z,11.20
2022-11-14T16:04:35.147Z,11.00
2022-11-14T16:07:40.154Z,11.10
2022-11-14T16:10:44.991Z,11.00
2022-11-14T16:13:49.896Z,11.10
2022-11-14T16:16:55.687Z,11.00
2022-11-14T16:20:00.155Z,10.90
2022-11-14T16:23:05.424Z,11.00
2022-11-14T16:26:09.885Z,10.80
2022-11-14T16:29:15.222Z,10.70
2022-11-14T16:32:21.059Z,10.80
2022-11-14T16:35:26.846Z,10.70
2022-11-14T16:38:31.479Z,10.70
2022-11-14T16:41:36.169Z,10.60
2022-11-14T16:44:49.232Z,10.50
2022-11-14T16:47:59.270Z,10.40
2022-11-14T16:51:20.153Z,10.30
2022-11-14T16:54:30.062Z,10.30
2022-11-14T16:57:36.921Z,10.20
2022-11-14T17:00:43.108Z,10.10
2022-11-14T17:03:48.996Z,10.00
2022-11-14T17:06:53.886Z,9.90
2022-11-14T17:09:58.544Z,10.00
2022-11-14T17:13:03.131Z,10.00
2022-11-14T17:16:08.150Z,10.10
2022-11-14T17:19:14.446Z,10.20
2022-11-14T17:22:20.071Z,10.30
2022-11-14T17:25:25.367Z,10.30
2022-11-14T17:28:30.116Z,10.40
2022-11-14T17:31:37.892Z,10.50
2022-11-14T17:34:45.832Z,10.80
2022-11-14T17:37:50.348Z,11.00
2022-11-14T17:40:57.823Z,11.10
2022-11-14T17:44:03.589Z,11.20
2022-11-14T17:47:08.137Z,11.30
2022-11-14T17:50:14.323Z,11.40
2022-11-14T17:53:20.757Z,11.60
2022-11-14T17:56:26.527Z,11.50
2022-11-14T17:59:31.264Z,11.60
2022-11-14T18:02:35.541Z,11.70
2022-11-14T18:05:42.005Z,11.70
2022-11-14T18:08:47.244Z,11.70
2022-11-14T18:11:52.197Z,11.90
2022-11-14T18:14:57.031Z,11.70
2022-11-14T18:18:02.197Z,11.60
2022-11-14T18:21:09.248Z,11.50
2022-11-14T18:24:14.894Z,11.50
2022-11-14T18:27:20.059Z,11.30
2022-11-14T18:30:40.940Z,11.40
2022-11-14T18:33:45.701Z,11.40
2022-11-14T18:36:51.593Z,11.40
2022-11-14T18:39:56.021Z,11.00
2022-11-14T18:43:00.361Z,11.10
2022-11-14T18:46:06.562Z,11.00
2022-11-14T18:49:11.606Z,10.90
2022-11-14T18:52:19.389Z,10.80
2022-11-14T18:55:23.723Z,10.60
2022-11-14T18:58:28.406Z,10.70
2022-11-14T19:01:35.049Z,10.60
2022-11-14T19:04:40.011Z,10.70
2022-11-14T19:07:46.060Z,10.60
2022-11-14T19:10:50.632Z,10.50
2022-11-14T19:13:55.530Z,10.50
2022-11-14T19:17:00.817Z,10.30
2022-11-14T19:20:11.375Z,10.30
2022-11-14T19:23:20.022Z,10.40
2022-11-14T19:26:24.654Z,10.30
2022-11-14T19:29:29.430Z,10.30
2022-11-14T19:32:35.274Z,10.30
2022-11-14T19:35:39.798Z,10.20
2022-11-14T19:38:45.813Z,10.20
2022-11-14T19:41:50.461Z,10.20
2022-11-14T19:44:55.000Z,10.20
2022-11-14T19:47:59.719Z,10.00
2022-11-14T19:51:06.319Z,10.00
2022-11-14T19:54:12.326Z,9.80
2022-11-14T19:57:16.914Z,10.00
2022-11-14T20:00:21.235Z,10.10
2022-11-14T20:03:25.581Z,10.00
2022-11-14T20:06:31.847Z,9.90
2022-11-14T20:09:38.060Z,9.90
2022-11-14T20:12:42.792Z,10.10
2022-11-14T20:15:47.119Z,10.00
2022-11-14T20:18:58.822Z,10.10
2022-11-14T20:22:06.411Z,10.30
2022-11-14T20:25:15.825Z,10.20
2022-11-14T20:28:20.896Z,10.40
2022-11-14T20:31:27.712Z,10.20
2022-11-14T20:34:32.253Z,10.20
2022-11-14T20:37:36.642Z,10.20
2022-11-14T20:40:42.572Z,10.20
2022-11-14T20:43:47.548Z,10.20
2022-11-14T20:46:52.297Z,10.10
2022-11-14T20:49:56.709Z,10.10
2022-11-14T20:53:01.579Z,10.00
2022-11-14T20:56:08.488Z,10.20
2022-11-14T20:59:12.988Z,10.30
2022-11-14T21:02:17.450Z,10.40
2022-11-14T21:05:22.016Z,10.00
2022-11-14T21:08:27.167Z,10.20
2022-11-14T21:11:33.531Z,10.40
2022-11-14T21:14:38.186Z,10.30
2022-11-14T21:17:43.192Z,10.40
2022-11-14T21:20:47.851Z,10.40
2022-11-14T21:23:53.466Z,10.50
2022-11-14T21:26:59.661Z,10.70
2022-11-14T21:30:05.367Z,10.70
2022-11-14T21:33:10.119Z,10.90
2022-11-14T21:36:43.220Z,11.00
2022-11-14T21:39:40.196Z,11.10
2022-11-14T21:42:46.067Z,10.90
2022-11-14T21:45:55.190Z,11.00
2022-11-14T21:48:59.543Z,11.10
2022-11-14T21:52:04.023Z,11.20
2022-11-14T21:55:08.592Z,11.10
2022-11-14T21:58:14.727Z,10.90
2022-11-14T22:01:41.063Z,10.90
2022-11-14T22:04:46.185Z,11.00
2022-11-14T22:07:50.639Z,11.20
2022-11-14T22:11:01.414Z,11.20
2022-11-14T22:14:07.812Z,11.10
2022-11-14T22:17:12.884Z,11.20
2022-11-14T22:20:17.637Z,11.30
2022-11-14T22:23:22.412Z,11.50
2022-11-14T22:26:26.494Z,11.40
2022-11-14T22:29:32.204Z,11.40
2022-11-14T22:32:37.037Z,11.50
2022-11-14T22:35:41.420Z,11.30
2022-11-14T22:38:47.090Z,11.30
2022-11-14T22:41:51.838Z,11.30
2022-11-14T22:44:57.837Z,11.40
2022-11-14T22:48:02.415Z,11.40
2022-11-14T22:51:08.887Z,11.20
2022-11-14T22:54:14.170Z,11.10
2022-11-14T22:57:18.648Z,11.10
2022-11-14T23:00:26.062Z,11.10
2022-11-14T23:03:30.550Z,10.80
2022-11-14T23:06:35.527Z,10.90
2022-11-14T23:09:40.043Z,11.00
2022-11-14T23:12:44.609Z,10.90
2022-11-14T23:15:50.893Z,10.90
2022-11-14T23:18:56.761Z,11.00
2022-11-14T23:22:01.414Z,11.10
2022-11-14T23:25:06.657Z,11.10
2022-11-14T23:28:11.151Z,10.90
2022-11-14T23:31:19.283Z,10.90
2022-11-14T23:34:23.796Z,10.90
2022-11-14T23:37:28.330Z,11.00
2022-11-14T23:40:33.189Z,11.00
2022-11-14T23:43:37.959Z,11.00
2022-11-14T23:46:43.755Z,10.90
2022-11-14T23:49:48.195Z,10.90
2022-11-14T23:52:52.875Z,11.00
2022-11-14T23:55:58.954Z,11.20
2022-11-14T23:59:03.495Z,11.40
